Cumberland, Iowa
Current Conditions -  °F | °C
As of 2:15 AM on Monday 24 Nov 2014 (Local Time) from KAIO Reporting Station
Overcast Overcast  
Wind Chill: 14°   Ceiling: 4300
Heat Index: 28°   Visibility: 10mi
Dew Point: 21°   Wind: 24mph
Humidity: 74%   Direction: 330°NNW
Pressure: 29.49"   Gusts: 33mph
Location:  41.27°N, 94.87°W
Report Text: KAIO 240815Z AUTO 33021G29KT 10SM OVC043 M02/M06 A2949 RMK AO2
Loading
Personal Weather Stations






























Interactive Weather Map New forecast layout! Learn more

10-Day Weather Forecast

Advertisements
Track Severe Weather on mobile